Toone, Tennessee
Current Conditions -  °F | °C
As of 7:53 AM on Saturday 25 Oct 2014 (Local Time) from KMKL Reporting Station
Clear Clear  
Wind Chill: 55°   Ceiling: Unl
Heat Index: 55°   Visibility: 9mi
Dew Point: 52°   Wind: 3mph
Humidity: 89%   Direction: 190°S
Pressure: 30.09"   Gusts: NA
Location:  35.35°N, 88.95°W
Report Text: KMKL 251253Z 19003KT 9SM CLR 13/11 A3009 RMK AO2 SLP186 T01280111
Loading
Personal Weather Stations






























Interactive Weather Map
Tropical Storm Tracking
New forecast layout! Learn more

10-Day Weather Forecast

Advertisements
Track Severe Weather on mobile